sensor_id;sensor_type;location;lat;lon;timestamp;pressure;altitude;pressure_sealevel;temperature;humidity
74169;BME280;62523;53.336;83.690;2023-04-01T00:04:20;101731.00;;;-10.08;59.79
74169;BME280;62523;53.336;83.690;2023-04-01T00:09:21;101748.69;;;-9.98;59.95
74169;BME280;62523;53.336;83.690;2023-04-01T00:14:23;101748.47;;;-10.01;60.28
74169;BME280;62523;53.336;83.690;2023-04-01T00:19:24;101765.34;;;-9.90;60.07
74169;BME280;62523;53.336;83.690;2023-04-01T00:24:27;101752.97;;;-10.10;59.37
74169;BME280;62523;53.336;83.690;2023-04-01T00:29:28;101748.28;;;-10.04;59.73
74169;BME280;62523;53.336;83.690;2023-04-01T00:34:31;101771.53;;;-9.73;60.10
74169;BME280;62523;53.336;83.690;2023-04-01T00:39:33;101779.72;;;-9.78;59.89
74169;BME280;62523;53.336;83.690;2023-04-01T00:44:36;101797.75;;;-9.75;59.22
74169;BME280;62523;53.336;83.690;2023-04-01T00:49:40;101798.72;;;-9.73;58.23
74169;BME280;62523;53.336;83.690;2023-04-01T00:54:45;101798.03;;;-9.71;59.10
74169;BME280;62523;53.336;83.690;2023-04-01T00:59:50;101817.28;;;-9.62;58.31
74169;BME280;62523;53.336;83.690;2023-04-01T01:04:53;101810.81;;;-9.57;58.18
74169;BME280;62523;53.336;83.690;2023-04-01T01:10:17;101820.44;;;-9.40;57.32
74169;BME280;62523;53.336;83.690;2023-04-01T01:15:33;101817.09;;;-9.25;58.07
74169;BME280;62523;53.336;83.690;2023-04-01T01:36:21;101846.44;;;-9.19;56.31
74169;BME280;62523;53.336;83.690;2023-04-01T01:41:25;101847.44;;;-8.90;55.63
74169;BME280;62523;53.336;83.690;2023-04-01T01:46:30;101826.63;;;-9.10;55.61
74169;BME280;62523;53.336;83.690;2023-04-01T01:51:31;101864.00;;;-8.70;55.56
74169;BME280;62523;53.336;83.690;2023-04-01T01:56:34;101837.78;;;-8.81;55.58
74169;BME280;62523;53.336;83.690;2023-04-01T02:01:39;101867.66;;;-8.52;54.91
74169;BME280;62523;53.336;83.690;2023-04-01T02:06:47;101846.66;;;-8.61;55.15
74169;BME280;62523;53.336;83.690;2023-04-01T02:11:57;101852.72;;;-8.31;54.04
74169;BME280;62523;53.336;83.690;2023-04-01T02:17:18;101800.38;;;-8.94;54.43
74169;BME280;62523;53.336;83.690;2023-04-01T02:22:32;101845.50;;;-8.38;53.79
74169;BME280;62523;53.336;83.690;2023-04-01T02:27:34;101811.09;;;-8.71;53.81
74169;BME280;62523;53.336;83.690;2023-04-01T02:32:37;101835.56;;;-8.18;53.01
74169;BME280;62523;53.336;83.690;2023-04-01T02:37:40;101838.47;;;-7.69;52.60
74169;BME280;62523;53.336;83.690;2023-04-01T02:42:43;101762.53;;;-8.58;53.71
74169;BME280;62523;53.336;83.690;2023-04-01T02:47:45;101861.59;;;-8.39;53.97
74169;BME280;62523;53.336;83.690;2023-04-01T02:52:46;101869.66;;;-8.33;52.91
74169;BME280;62523;53.336;83.690;2023-04-01T02:57:47;101885.59;;;-8.65;53.87
74169;BME280;62523;53.336;83.690;2023-04-01T03:02:48;101861.03;;;-8.63;53.51
74169;BME280;62523;53.336;83.690;2023-04-01T03:07:50;101878.38;;;-8.44;52.90
74169;BME280;62523;53.336;83.690;2023-04-01T03:12:51;101865.25;;;-8.35;51.91
74169;BME280;62523;53.336;83.690;2023-04-01T03:17:52;101881.28;;;-8.10;52.36
74169;BME280;62523;53.336;83.690;2023-04-01T03:22:53;101869.28;;;-7.96;51.84
74169;BME280;62523;53.336;83.690;2023-04-01T03:27:55;101888.16;;;-7.80;51.66
74169;BME280;62523;53.336;83.690;2023-04-01T03:32:57;101884.38;;;-8.00;51.47
74169;BME280;62523;53.336;83.690;2023-04-01T03:38:00;101887.97;;;-7.54;51.76
74169;BME280;62523;53.336;83.690;2023-04-01T03:43:01;101853.28;;;-7.78;51.20
74169;BME280;62523;53.336;83.690;2023-04-01T03:48:02;101888.69;;;-7.56;51.00
74169;BME280;62523;53.336;83.690;2023-04-01T03:53:04;101860.41;;;-7.73;50.86
74169;BME280;62523;53.336;83.690;2023-04-01T03:58:06;101878.72;;;-6.91;50.27
74169;BME280;62523;53.336;83.690;2023-04-01T04:03:08;101864.06;;;-7.39;50.13
74169;BME280;62523;53.336;83.690;2023-04-01T04:08:09;101856.13;;;-6.98;50.16
74169;BME280;62523;53.336;83.690;2023-04-01T04:13:10;101881.88;;;-7.26;49.44
74169;BME280;62523;53.336;83.690;2023-04-01T04:18:11;101888.50;;;-7.15;49.65
74169;BME280;62523;53.336;83.690;2023-04-01T04:23:14;101863.44;;;-7.50;49.05
74169;BME280;62523;53.336;83.690;2023-04-01T04:28:15;101892.28;;;-7.23;49.63
74169;BME280;62523;53.336;83.690;2023-04-01T04:33:18;101890.13;;;-6.86;49.45
74169;BME280;62523;53.336;83.690;2023-04-01T04:38:19;101868.09;;;-6.82;49.93
74169;BME280;62523;53.336;83.690;2023-04-01T04:43:24;101799.59;;;-7.01;50.09
74169;BME280;62523;53.336;83.690;2023-04-01T04:48:26;101891.88;;;-7.16;49.37
74169;BME280;62523;53.336;83.690;2023-04-01T04:53:27;101868.31;;;-6.94;49.43
74169;BME280;62523;53.336;83.690;2023-04-01T04:58:29;101877.53;;;-6.66;48.92
74169;BME280;62523;53.336;83.690;2023-04-01T05:03:30;101890.50;;;-6.63;49.66
74169;BME280;62523;53.336;83.690;2023-04-01T05:08:31;101865.50;;;-6.98;49.65
74169;BME280;62523;53.336;83.690;2023-04-01T05:13:33;101883.19;;;-6.41;48.59
74169;BME280;62523;53.336;83.690;2023-04-01T05:18:34;101859.00;;;-6.61;47.43
74169;BME280;62523;53.336;83.690;2023-04-01T05:23:35;101870.84;;;-6.31;47.75
74169;BME280;62523;53.336;83.690;2023-04-01T05:28:39;101879.03;;;-7.01;47.44
74169;BME280;62523;53.336;83.690;2023-04-01T05:33:48;101853.81;;;-6.46;46.44
74169;BME280;62523;53.336;83.690;2023-04-01T05:38:55;101854.59;;;-6.63;46.55
74169;BME280;62523;53.336;83.690;2023-04-01T05:43:56;101802.03;;;-6.71;46.70
74169;BME280;62523;53.336;83.690;2023-04-01T05:48:57;101880.47;;;-5.77;46.99
74169;BME280;62523;53.336;83.690;2023-04-01T05:53:58;101808.13;;;-6.04;47.21
74169;BME280;62523;53.336;83.690;2023-04-01T05:59:03;101813.47;;;-6.81;47.68
74169;BME280;62523;53.336;83.690;2023-04-01T06:04:04;101864.50;;;-5.71;47.69
74169;BME280;62523;53.336;83.690;2023-04-01T06:09:17;101848.88;;;-5.92;46.06
74169;BME280;62523;53.336;83.690;2023-04-01T06:46:48;101847.16;;;-6.09;46.84
74169;BME280;62523;53.336;83.690;2023-04-01T07:07:48;101857.34;;;-5.42;45.65
74169;BME280;62523;53.336;83.690;2023-04-01T07:12:56;101840.94;;;-6.14;45.50
74169;BME280;62523;53.336;83.690;2023-04-01T07:18:29;101853.44;;;-5.70;44.89
74169;BME280;62523;53.336;83.690;2023-04-01T07:23:32;101855.59;;;-5.43;45.65
74169;BME280;62523;53.336;83.690;2023-04-01T07:28:39;101846.94;;;-5.80;45.28
74169;BME280;62523;53.336;83.690;2023-04-01T07:39:13;101852.59;;;-5.35;44.41
74169;BME280;62523;53.336;83.690;2023-04-01T08:05:09;101823.91;;;-5.44;44.66
74169;BME280;62523;53.336;83.690;2023-04-01T08:10:50;101809.28;;;-5.45;45.68
74169;BME280;62523;53.336;83.690;2023-04-01T08:21:32;101820.75;;;-5.20;44.19
74169;BME280;62523;53.336;83.690;2023-04-01T08:26:42;101775.53;;;-5.35;44.28
74169;BME280;62523;53.336;83.690;2023-04-01T08:32:18;101811.03;;;-5.26;44.95
74169;BME280;62523;53.336;83.690;2023-04-01T08:37:25;101795.56;;;-5.09;45.29
74169;BME280;62523;53.336;83.690;2023-04-01T09:15:29;101805.34;;;-4.83;43.84
74169;BME280;62523;53.336;83.690;2023-04-01T09:21:03;101813.13;;;-4.81;43.79
74169;BME280;62523;53.336;83.690;2023-04-01T09:26:31;101797.59;;;-5.02;43.96
74169;BME280;62523;53.336;83.690;2023-04-01T09:42:59;101805.22;;;-4.86;44.10
74169;BME280;62523;53.336;83.690;2023-04-01T09:48:13;101801.16;;;-4.81;43.72
74169;BME280;62523;53.336;83.690;2023-04-01T09:54:20;101805.09;;;-4.69;43.74
74169;BME280;62523;53.336;83.690;2023-04-01T09:59:08;101720.13;;;-5.10;43.52
74169;BME280;62523;53.336;83.690;2023-04-01T10:37:15;101798.38;;;-4.85;41.34
74169;BME280;62523;53.336;83.690;2023-04-01T11:20:13;101785.91;;;-4.96;41.84
74169;BME280;62523;53.336;83.690;2023-04-01T11:42:17;101754.66;;;-5.41;41.53
74169;BME280;62523;53.336;83.690;2023-04-01T12:14:36;101803.63;;;-5.20;43.14
74169;BME280;62523;53.336;83.690;2023-04-01T12:19:58;101784.84;;;-5.54;43.00
74169;BME280;62523;53.336;83.690;2023-04-01T12:30:59;101816.25;;;-5.42;42.65
74169;BME280;62523;53.336;83.690;2023-04-01T13:03:55;101825.00;;;-5.91;44.57
74169;BME280;62523;53.336;83.690;2023-04-01T13:09:08;101826.47;;;-5.96;44.76
74169;BME280;62523;53.336;83.690;2023-04-01T13:14:31;101837.88;;;-6.07;44.93
74169;BME280;62523;53.336;83.690;2023-04-01T13:25:08;101837.13;;;-6.05;45.77
74169;BME280;62523;53.336;83.690;2023-04-01T13:30:24;101837.16;;;-6.21;45.77
74169;BME280;62523;53.336;83.690;2023-04-01T13:35:41;101785.84;;;-6.70;46.53
74169;BME280;62523;53.336;83.690;2023-04-01T13:46:40;101828.81;;;-6.50;46.66
74169;BME280;62523;53.336;83.690;2023-04-01T14:13:41;101846.06;;;-6.31;47.36
74169;BME280;62523;53.336;83.690;2023-04-01T14:35:16;101750.91;;;-7.01;47.58
74169;BME280;62523;53.336;83.690;2023-04-01T14:40:40;101830.81;;;-6.61;48.43
74169;BME280;62523;53.336;83.690;2023-04-01T14:51:08;101803.81;;;-7.02;48.57
74169;BME280;62523;53.336;83.690;2023-04-01T14:56:10;101831.56;;;-6.94;49.78
74169;BME280;62523;53.336;83.690;2023-04-01T15:06:50;101781.00;;;-7.13;49.44
74169;BME280;62523;53.336;83.690;2023-04-01T15:12:59;101823.16;;;-6.75;49.84
74169;BME280;62523;53.336;83.690;2023-04-01T15:55:26;101800.59;;;-6.66;48.50
74169;BME280;62523;53.336;83.690;2023-04-01T16:00:30;101805.34;;;-6.57;48.43
74169;BME280;62523;53.336;83.690;2023-04-01T16:16:33;101799.94;;;-6.78;49.49
74169;BME280;62523;53.336;83.690;2023-04-01T16:27:54;101783.31;;;-7.02;50.46
74169;BME280;62523;53.336;83.690;2023-04-01T16:33:39;101807.16;;;-6.88;51.01
74169;BME280;62523;53.336;83.690;2023-04-01T16:43:56;101769.56;;;-7.35;51.75
74169;BME280;62523;53.336;83.690;2023-04-01T16:54:14;101810.88;;;-7.29;51.16
74169;BME280;62523;53.336;83.690;2023-04-01T16:59:29;101789.25;;;-7.34;50.75
74169;BME280;62523;53.336;83.690;2023-04-01T17:25:59;101796.28;;;-7.61;49.50
74169;BME280;62523;53.336;83.690;2023-04-01T17:42:40;101787.16;;;-7.71;49.42
74169;BME280;62523;53.336;83.690;2023-04-01T17:47:52;101793.09;;;-7.87;49.85
74169;BME280;62523;53.336;83.690;2023-04-01T17:53:18;101797.03;;;-7.92;50.03
74169;BME280;62523;53.336;83.690;2023-04-01T17:58:30;101794.13;;;-7.98;51.10
74169;BME280;62523;53.336;83.690;2023-04-01T18:03:57;101769.88;;;-8.05;51.37
74169;BME280;62523;53.336;83.690;2023-04-01T18:09:18;101782.84;;;-8.16;52.01
74169;BME280;62523;53.336;83.690;2023-04-01T18:14:37;101777.53;;;-8.19;52.22
74169;BME280;62523;53.336;83.690;2023-04-01T18:19:45;101773.81;;;-8.25;52.42
74169;BME280;62523;53.336;83.690;2023-04-01T18:25:18;101779.66;;;-8.27;53.46
74169;BME280;62523;53.336;83.690;2023-04-01T18:30:28;101764.56;;;-8.37;54.07
74169;BME280;62523;53.336;83.690;2023-04-01T18:46:16;101765.25;;;-8.40;54.19
74169;BME280;62523;53.336;83.690;2023-04-01T18:51:26;101729.91;;;-8.62;54.09
74169;BME280;62523;53.336;83.690;2023-04-01T19:01:43;101746.06;;;-8.76;55.77
74169;BME280;62523;53.336;83.690;2023-04-01T19:06:54;101753.69;;;-8.63;56.01
74169;BME280;62523;53.336;83.690;2023-04-01T19:27:50;101762.38;;;-8.74;57.54
74169;BME280;62523;53.336;83.690;2023-04-01T19:38:43;101731.56;;;-8.91;57.93
74169;BME280;62523;53.336;83.690;2023-04-01T20:00:41;101731.63;;;-9.04;59.87
74169;BME280;62523;53.336;83.690;2023-04-01T20:17:01;101716.28;;;-9.32;61.05
74169;BME280;62523;53.336;83.690;2023-04-01T20:22:16;101713.31;;;-9.38;61.62
74169;BME280;62523;53.336;83.690;2023-04-01T20:27:27;101694.41;;;-9.42;61.58
74169;BME280;62523;53.336;83.690;2023-04-01T20:43:40;101704.13;;;-9.50;62.72
74169;BME280;62523;53.336;83.690;2023-04-01T20:48:59;101716.72;;;-9.53;62.99
74169;BME280;62523;53.336;83.690;2023-04-01T22:13:54;101731.22;;;-9.92;64.22
74169;BME280;62523;53.336;83.690;2023-04-01T22:19:22;101725.22;;;-9.92;64.27
74169;BME280;62523;53.336;83.690;2023-04-01T22:24:37;101722.56;;;-9.94;65.27
74169;BME280;62523;53.336;83.690;2023-04-01T22:45:40;101730.31;;;-10.05;65.35
74169;BME280;62523;53.336;83.690;2023-04-01T22:51:12;101715.47;;;-10.24;65.99
74169;BME280;62523;53.336;83.690;2023-04-01T22:56:30;101727.84;;;-10.31;66.83
74169;BME280;62523;53.336;83.690;2023-04-01T23:01:39;101718.78;;;-10.52;66.62
74169;BME280;62523;53.336;83.690;2023-04-01T23:06:48;101735.97;;;-10.49;67.38
74169;BME280;62523;53.336;83.690;2023-04-01T23:12:13;101729.88;;;-10.52;67.56
74169;BME280;62523;53.336;83.690;2023-04-01T23:17:24;101739.47;;;-10.47;67.51
74169;BME280;62523;53.336;83.690;2023-04-01T23:33:30;101744.25;;;-10.52;67.06
74169;BME280;62523;53.336;83.690;2023-04-01T23:38:32;101731.91;;;-10.59;67.98
74169;BME280;62523;53.336;83.690;2023-04-01T23:43:40;101710.50;;;-10.75;67.76
74169;BME280;62523;53.336;83.690;2023-04-01T23:48:44;101724.34;;;-10.83;68.46
74169;BME280;62523;53.336;83.690;2023-04-01T23:53:47;101730.88;;;-10.75;68.33
74169;BME280;62523;53.336;83.690;2023-04-01T23:58:56;101714.47;;;-10.78;67.93
